Terminal Aerodrome Forecast
Issued by NWS Atlanta, GA

Home | Current Version | Previous Version | Text Only | Print | Product List | Glossary On
Versions: 1 2 3 4 5 6 7 8 9 10 11 12 13 14 15 16 17 18 19 20
000
FTUS42 KFFC 231400 AAC
TAFMCN
TAF AMD
KMCN 231406Z 2314/2412 05007KT P6SM SCT008 BKN015
      TEMPO 2314/2316 BKN008
     FM231600 05010KT P6SM SCT015 BKN035
     FM231800 05012G20KT P6SM SCT025 SCT050
     FM240000 05010KT P6SM SCT025 SCT045=

USA.gov is the U.S. government's official web portal to all federal, state and local government web resources and services.